sensor_id;sensor_type;location;lat;lon;timestamp;temperature;humidity
12948;DHT22;6539;49.476;8.484;2023-10-09T00:00:30;16.50;99.90
12948;DHT22;6539;49.476;8.484;2023-10-09T00:03:25;16.50;99.90
12948;DHT22;6539;49.476;8.484;2023-10-09T00:06:13;16.50;99.90
12948;DHT22;6539;49.476;8.484;2023-10-09T00:09:00;16.50;99.90
12948;DHT22;6539;49.476;8.484;2023-10-09T00:11:57;16.50;99.90
12948;DHT22;6539;49.476;8.484;2023-10-09T00:14:45;16.50;99.90
12948;DHT22;6539;49.476;8.484;2023-10-09T00:17:36;16.30;99.90
12948;DHT22;6539;49.476;8.484;2023-10-09T00:20:25;16.30;99.90
12948;DHT22;6539;49.476;8.484;2023-10-09T00:23:23;16.20;99.90
12948;DHT22;6539;49.476;8.484;2023-10-09T00:26:13;16.20;99.90
12948;DHT22;6539;49.476;8.484;2023-10-09T00:29:02;16.30;99.90
12948;DHT22;6539;49.476;8.484;2023-10-09T00:31:54;16.30;99.90
12948;DHT22;6539;49.476;8.484;2023-10-09T00:34:51;16.30;99.90
12948;DHT22;6539;49.476;8.484;2023-10-09T00:37:37;16.30;99.90
12948;DHT22;6539;49.476;8.484;2023-10-09T00:40:30;16.20;99.90
12948;DHT22;6539;49.476;8.484;2023-10-09T00:43:21;16.20;99.90
12948;DHT22;6539;49.476;8.484;2023-10-09T00:46:14;16.10;99.90
12948;DHT22;6539;49.476;8.484;2023-10-09T00:49:09;16.20;99.90
12948;DHT22;6539;49.476;8.484;2023-10-09T00:51:56;16.20;99.90
12948;DHT22;6539;49.476;8.484;2023-10-09T00:54:44;16.20;99.90
12948;DHT22;6539;49.476;8.484;2023-10-09T00:57:37;16.20;99.90
12948;DHT22;6539;49.476;8.484;2023-10-09T01:00:26;16.20;99.90
12948;DHT22;6539;49.476;8.484;2023-10-09T01:03:30;16.30;99.90
12948;DHT22;6539;49.476;8.484;2023-10-09T01:06:19;16.30;99.90
12948;DHT22;6539;49.476;8.484;2023-10-09T01:09:14;16.30;99.90
12948;DHT22;6539;49.476;8.484;2023-10-09T01:12:07;16.20;99.90
12948;DHT22;6539;49.476;8.484;2023-10-09T01:14:53;16.20;99.90
12948;DHT22;6539;49.476;8.484;2023-10-09T01:17:41;16.30;99.90
12948;DHT22;6539;49.476;8.484;2023-10-09T01:20:33;16.20;99.90
12948;DHT22;6539;49.476;8.484;2023-10-09T01:23:27;16.20;99.90
12948;DHT22;6539;49.476;8.484;2023-10-09T01:26:15;16.20;99.90
12948;DHT22;6539;49.476;8.484;2023-10-09T01:29:01;16.20;99.90
12948;DHT22;6539;49.476;8.484;2023-10-09T01:31:52;16.10;99.90
12948;DHT22;6539;49.476;8.484;2023-10-09T01:34:44;16.10;99.90
12948;DHT22;6539;49.476;8.484;2023-10-09T01:37:36;16.10;99.90
12948;DHT22;6539;49.476;8.484;2023-10-09T01:40:28;16.10;99.90
12948;DHT22;6539;49.476;8.484;2023-10-09T01:43:22;16.10;99.90
12948;DHT22;6539;49.476;8.484;2023-10-09T01:46:11;16.10;99.90
12948;DHT22;6539;49.476;8.484;2023-10-09T01:49:01;16.00;99.90
12948;DHT22;6539;49.476;8.484;2023-10-09T01:52:02;16.00;99.90
12948;DHT22;6539;49.476;8.484;2023-10-09T01:55:06;16.10;99.90
12948;DHT22;6539;49.476;8.484;2023-10-09T01:58:00;16.00;99.90
12948;DHT22;6539;49.476;8.484;2023-10-09T02:01:09;16.00;99.90
12948;DHT22;6539;49.476;8.484;2023-10-09T02:04:02;15.90;99.90
12948;DHT22;6539;49.476;8.484;2023-10-09T02:06:56;15.90;99.90
12948;DHT22;6539;49.476;8.484;2023-10-09T02:09:45;15.90;99.90
12948;DHT22;6539;49.476;8.484;2023-10-09T02:12:33;15.90;99.90
12948;DHT22;6539;49.476;8.484;2023-10-09T02:15:19;15.80;99.90
12948;DHT22;6539;49.476;8.484;2023-10-09T02:18:27;15.80;99.90
12948;DHT22;6539;49.476;8.484;2023-10-09T02:21:19;15.80;99.90
12948;DHT22;6539;49.476;8.484;2023-10-09T02:24:34;15.70;99.90
12948;DHT22;6539;49.476;8.484;2023-10-09T02:27:37;15.80;99.90
12948;DHT22;6539;49.476;8.484;2023-10-09T02:30:26;15.80;99.90
12948;DHT22;6539;49.476;8.484;2023-10-09T02:33:15;15.80;99.90
12948;DHT22;6539;49.476;8.484;2023-10-09T02:36:15;15.80;99.90
12948;DHT22;6539;49.476;8.484;2023-10-09T02:39:04;15.80;99.90
12948;DHT22;6539;49.476;8.484;2023-10-09T02:41:55;15.80;99.90
12948;DHT22;6539;49.476;8.484;2023-10-09T02:45:06;15.80;99.90
12948;DHT22;6539;49.476;8.484;2023-10-09T02:47:52;15.80;99.90
12948;DHT22;6539;49.476;8.484;2023-10-09T02:50:46;15.80;99.90
12948;DHT22;6539;49.476;8.484;2023-10-09T02:53:38;15.90;99.90
12948;DHT22;6539;49.476;8.484;2023-10-09T02:56:27;15.80;99.90
12948;DHT22;6539;49.476;8.484;2023-10-09T02:59:25;15.90;99.90
12948;DHT22;6539;49.476;8.484;2023-10-09T03:02:15;15.90;99.90
12948;DHT22;6539;49.476;8.484;2023-10-09T03:05:02;15.90;99.90
12948;DHT22;6539;49.476;8.484;2023-10-09T03:07:51;15.80;99.90
12948;DHT22;6539;49.476;8.484;2023-10-09T03:10:38;15.80;99.90
12948;DHT22;6539;49.476;8.484;2023-10-09T03:13:27;15.80;99.90
12948;DHT22;6539;49.476;8.484;2023-10-09T03:16:14;15.80;99.90
12948;DHT22;6539;49.476;8.484;2023-10-09T03:19:06;15.80;99.90
12948;DHT22;6539;49.476;8.484;2023-10-09T03:21:53;15.70;99.90
12948;DHT22;6539;49.476;8.484;2023-10-09T03:24:42;15.70;99.90
12948;DHT22;6539;49.476;8.484;2023-10-09T03:27:33;15.70;99.90
12948;DHT22;6539;49.476;8.484;2023-10-09T03:30:20;15.60;99.90
12948;DHT22;6539;49.476;8.484;2023-10-09T03:33:08;15.50;99.90
12948;DHT22;6539;49.476;8.484;2023-10-09T03:35:55;15.60;99.90
12948;DHT22;6539;49.476;8.484;2023-10-09T03:38:43;15.50;99.90
12948;DHT22;6539;49.476;8.484;2023-10-09T03:41:30;15.40;99.90
12948;DHT22;6539;49.476;8.484;2023-10-09T03:44:16;15.40;99.90
12948;DHT22;6539;49.476;8.484;2023-10-09T03:47:04;15.40;99.90
12948;DHT22;6539;49.476;8.484;2023-10-09T03:49:53;15.40;99.90
12948;DHT22;6539;49.476;8.484;2023-10-09T03:52:48;15.40;99.90
12948;DHT22;6539;49.476;8.484;2023-10-09T03:55:37;15.40;99.90
12948;DHT22;6539;49.476;8.484;2023-10-09T03:58:25;15.40;99.90
12948;DHT22;6539;49.476;8.484;2023-10-09T04:01:19;15.40;99.90
12948;DHT22;6539;49.476;8.484;2023-10-09T04:04:13;15.40;99.90
12948;DHT22;6539;49.476;8.484;2023-10-09T04:06:59;15.30;99.90
12948;DHT22;6539;49.476;8.484;2023-10-09T04:09:48;15.30;99.90
12948;DHT22;6539;49.476;8.484;2023-10-09T04:12:47;15.30;99.90
12948;DHT22;6539;49.476;8.484;2023-10-09T04:15:38;15.30;99.90
12948;DHT22;6539;49.476;8.484;2023-10-09T04:18:30;15.30;99.90
12948;DHT22;6539;49.476;8.484;2023-10-09T04:21:21;15.30;99.90
12948;DHT22;6539;49.476;8.484;2023-10-09T04:24:22;15.30;99.90
12948;DHT22;6539;49.476;8.484;2023-10-09T04:27:08;15.30;99.90
12948;DHT22;6539;49.476;8.484;2023-10-09T04:29:54;15.20;99.90
12948;DHT22;6539;49.476;8.484;2023-10-09T04:32:40;15.20;99.90
12948;DHT22;6539;49.476;8.484;2023-10-09T04:35:30;15.20;99.90
12948;DHT22;6539;49.476;8.484;2023-10-09T04:38:19;15.30;99.90
12948;DHT22;6539;49.476;8.484;2023-10-09T04:41:08;15.30;99.90
12948;DHT22;6539;49.476;8.484;2023-10-09T04:43:55;15.30;99.90
12948;DHT22;6539;49.476;8.484;2023-10-09T04:47:02;15.30;99.90
12948;DHT22;6539;49.476;8.484;2023-10-09T04:50:00;15.40;99.90
12948;DHT22;6539;49.476;8.484;2023-10-09T04:52:46;15.40;99.90
12948;DHT22;6539;49.476;8.484;2023-10-09T04:55:37;15.40;99.90
12948;DHT22;6539;49.476;8.484;2023-10-09T04:58:24;15.30;99.90
12948;DHT22;6539;49.476;8.484;2023-10-09T05:01:11;15.30;99.90
12948;DHT22;6539;49.476;8.484;2023-10-09T05:04:08;15.30;99.90
12948;DHT22;6539;49.476;8.484;2023-10-09T05:07:03;15.40;99.90
12948;DHT22;6539;49.476;8.484;2023-10-09T05:10:08;15.30;99.90
12948;DHT22;6539;49.476;8.484;2023-10-09T05:13:01;15.30;99.90
12948;DHT22;6539;49.476;8.484;2023-10-09T05:15:51;15.30;99.90
12948;DHT22;6539;49.476;8.484;2023-10-09T05:18:40;15.30;99.90
12948;DHT22;6539;49.476;8.484;2023-10-09T05:21:35;15.30;99.90
12948;DHT22;6539;49.476;8.484;2023-10-09T05:24:33;15.30;99.90
12948;DHT22;6539;49.476;8.484;2023-10-09T05:27:29;15.30;99.90
12948;DHT22;6539;49.476;8.484;2023-10-09T05:30:36;15.40;99.90
12948;DHT22;6539;49.476;8.484;2023-10-09T05:33:29;15.30;99.90
12948;DHT22;6539;49.476;8.484;2023-10-09T05:36:19;15.30;99.90
12948;DHT22;6539;49.476;8.484;2023-10-09T05:39:10;15.30;99.90
12948;DHT22;6539;49.476;8.484;2023-10-09T05:42:15;15.30;99.90
12948;DHT22;6539;49.476;8.484;2023-10-09T05:45:04;15.30;99.90
12948;DHT22;6539;49.476;8.484;2023-10-09T05:48:03;15.30;99.90
12948;DHT22;6539;49.476;8.484;2023-10-09T05:50:49;15.20;99.90
12948;DHT22;6539;49.476;8.484;2023-10-09T05:54:00;15.20;99.90
12948;DHT22;6539;49.476;8.484;2023-10-09T05:57:18;15.20;99.90
12948;DHT22;6539;49.476;8.484;2023-10-09T06:00:24;15.20;99.90
12948;DHT22;6539;49.476;8.484;2023-10-09T06:03:31;15.20;99.90
12948;DHT22;6539;49.476;8.484;2023-10-09T06:06:39;15.20;99.90
12948;DHT22;6539;49.476;8.484;2023-10-09T06:09:34;15.20;99.90
12948;DHT22;6539;49.476;8.484;2023-10-09T06:12:40;15.30;99.90
12948;DHT22;6539;49.476;8.484;2023-10-09T06:15:29;15.30;99.90
12948;DHT22;6539;49.476;8.484;2023-10-09T06:18:38;15.30;99.90
12948;DHT22;6539;49.476;8.484;2023-10-09T06:21:29;15.30;99.90
12948;DHT22;6539;49.476;8.484;2023-10-09T06:24:30;15.40;99.90
12948;DHT22;6539;49.476;8.484;2023-10-09T06:27:27;15.40;99.90
12948;DHT22;6539;49.476;8.484;2023-10-09T06:30:15;15.40;99.90
12948;DHT22;6539;49.476;8.484;2023-10-09T06:33:04;15.40;99.90
12948;DHT22;6539;49.476;8.484;2023-10-09T06:36:04;15.40;99.90
12948;DHT22;6539;49.476;8.484;2023-10-09T06:39:03;15.40;99.90
12948;DHT22;6539;49.476;8.484;2023-10-09T06:42:08;15.50;99.90
12948;DHT22;6539;49.476;8.484;2023-10-09T06:45:16;15.50;99.90
12948;DHT22;6539;49.476;8.484;2023-10-09T06:48:03;15.60;99.90
12948;DHT22;6539;49.476;8.484;2023-10-09T06:51:15;15.60;99.90
12948;DHT22;6539;49.476;8.484;2023-10-09T06:54:24;15.60;99.90
12948;DHT22;6539;49.476;8.484;2023-10-09T06:57:19;15.70;99.90
12948;DHT22;6539;49.476;8.484;2023-10-09T07:00:25;15.70;99.90
12948;DHT22;6539;49.476;8.484;2023-10-09T07:03:31;15.80;99.90
12948;DHT22;6539;49.476;8.484;2023-10-09T07:06:21;15.80;99.90
12948;DHT22;6539;49.476;8.484;2023-10-09T07:09:10;15.80;99.90
12948;DHT22;6539;49.476;8.484;2023-10-09T07:11:56;15.80;99.90
12948;DHT22;6539;49.476;8.484;2023-10-09T07:14:51;15.90;99.90
12948;DHT22;6539;49.476;8.484;2023-10-09T07:17:52;15.90;99.90
12948;DHT22;6539;49.476;8.484;2023-10-09T07:20:40;16.00;99.90
12948;DHT22;6539;49.476;8.484;2023-10-09T07:23:44;16.10;99.90
12948;DHT22;6539;49.476;8.484;2023-10-09T07:26:34;16.10;99.90
12948;DHT22;6539;49.476;8.484;2023-10-09T07:29:23;16.20;99.90
12948;DHT22;6539;49.476;8.484;2023-10-09T07:32:14;16.20;99.90
12948;DHT22;6539;49.476;8.484;2023-10-09T07:35:07;16.30;99.90
12948;DHT22;6539;49.476;8.484;2023-10-09T07:38:17;16.30;99.90
12948;DHT22;6539;49.476;8.484;2023-10-09T07:41:21;16.40;99.90
12948;DHT22;6539;49.476;8.484;2023-10-09T07:44:09;16.40;99.90
12948;DHT22;6539;49.476;8.484;2023-10-09T07:47:20;16.40;99.90
12948;DHT22;6539;49.476;8.484;2023-10-09T07:50:19;16.50;99.90
12948;DHT22;6539;49.476;8.484;2023-10-09T07:53:07;16.50;99.90
12948;DHT22;6539;49.476;8.484;2023-10-09T07:56:14;16.60;99.90
12948;DHT22;6539;49.476;8.484;2023-10-09T07:59:09;16.50;99.90
12948;DHT22;6539;49.476;8.484;2023-10-09T08:02:00;16.60;99.90
12948;DHT22;6539;49.476;8.484;2023-10-09T08:04:51;16.60;99.90
12948;DHT22;6539;49.476;8.484;2023-10-09T08:07:39;16.60;99.90
12948;DHT22;6539;49.476;8.484;2023-10-09T08:10:38;16.60;99.90
12948;DHT22;6539;49.476;8.484;2023-10-09T08:13:48;16.60;99.90
12948;DHT22;6539;49.476;8.484;2023-10-09T08:16:50;16.70;99.90
12948;DHT22;6539;49.476;8.484;2023-10-09T08:20:00;16.80;99.90
12948;DHT22;6539;49.476;8.484;2023-10-09T08:22:57;16.90;99.90
12948;DHT22;6539;49.476;8.484;2023-10-09T08:25:45;17.00;99.90
12948;DHT22;6539;49.476;8.484;2023-10-09T08:28:53;17.10;99.90
12948;DHT22;6539;49.476;8.484;2023-10-09T08:32:00;17.20;99.90
12948;DHT22;6539;49.476;8.484;2023-10-09T08:35:06;17.30;99.90
12948;DHT22;6539;49.476;8.484;2023-10-09T08:38:15;17.40;99.90
12948;DHT22;6539;49.476;8.484;2023-10-09T08:41:12;17.40;99.90
12948;DHT22;6539;49.476;8.484;2023-10-09T08:44:07;17.60;99.90
12948;DHT22;6539;49.476;8.484;2023-10-09T08:46:54;17.70;99.90
12948;DHT22;6539;49.476;8.484;2023-10-09T08:49:41;17.70;99.90
12948;DHT22;6539;49.476;8.484;2023-10-09T08:52:28;17.80;99.90
12948;DHT22;6539;49.476;8.484;2023-10-09T08:55:14;18.00;99.90
12948;DHT22;6539;49.476;8.484;2023-10-09T08:58:02;18.20;99.90
12948;DHT22;6539;49.476;8.484;2023-10-09T09:01:01;18.20;99.90
12948;DHT22;6539;49.476;8.484;2023-10-09T09:03:49;18.20;99.90
12948;DHT22;6539;49.476;8.484;2023-10-09T09:06:38;18.20;99.90
12948;DHT22;6539;49.476;8.484;2023-10-09T09:09:26;18.30;99.90
12948;DHT22;6539;49.476;8.484;2023-10-09T09:12:15;18.40;99.90
12948;DHT22;6539;49.476;8.484;2023-10-09T09:15:02;18.50;99.90
12948;DHT22;6539;49.476;8.484;2023-10-09T09:17:50;18.50;99.90
12948;DHT22;6539;49.476;8.484;2023-10-09T09:20:36;18.60;99.90
12948;DHT22;6539;49.476;8.484;2023-10-09T09:23:32;18.70;99.90
12948;DHT22;6539;49.476;8.484;2023-10-09T09:26:19;18.70;99.90
12948;DHT22;6539;49.476;8.484;2023-10-09T09:29:37;18.70;99.90
12948;DHT22;6539;49.476;8.484;2023-10-09T09:32:28;18.70;99.90
12948;DHT22;6539;49.476;8.484;2023-10-09T09:35:23;18.80;99.90
12948;DHT22;6539;49.476;8.484;2023-10-09T09:38:13;18.80;99.90
12948;DHT22;6539;49.476;8.484;2023-10-09T09:41:03;18.90;99.90
12948;DHT22;6539;49.476;8.484;2023-10-09T09:43:59;18.90;99.90
12948;DHT22;6539;49.476;8.484;2023-10-09T09:46:51;18.90;99.90
12948;DHT22;6539;49.476;8.484;2023-10-09T09:49:45;19.10;99.90
12948;DHT22;6539;49.476;8.484;2023-10-09T09:52:31;19.30;99.90
12948;DHT22;6539;49.476;8.484;2023-10-09T09:55:33;19.30;99.90
12948;DHT22;6539;49.476;8.484;2023-10-09T09:58:20;19.50;99.90
12948;DHT22;6539;49.476;8.484;2023-10-09T10:01:10;19.50;99.90
12948;DHT22;6539;49.476;8.484;2023-10-09T10:07:04;19.60;99.90
12948;DHT22;6539;49.476;8.484;2023-10-09T10:09:55;19.50;99.90
12948;DHT22;6539;49.476;8.484;2023-10-09T10:12:49;19.50;99.90
12948;DHT22;6539;49.476;8.484;2023-10-09T10:16:05;19.50;99.90
12948;DHT22;6539;49.476;8.484;2023-10-09T10:19:05;19.40;99.90
12948;DHT22;6539;49.476;8.484;2023-10-09T10:22:24;19.40;99.90
12948;DHT22;6539;49.476;8.484;2023-10-09T10:28:25;19.50;99.90
12948;DHT22;6539;49.476;8.484;2023-10-09T10:32:00;19.50;99.90
12948;DHT22;6539;49.476;8.484;2023-10-09T10:34:54;19.50;99.90
12948;DHT22;6539;49.476;8.484;2023-10-09T10:37:46;19.50;99.90
12948;DHT22;6539;49.476;8.484;2023-10-09T10:40:38;19.60;99.90
12948;DHT22;6539;49.476;8.484;2023-10-09T10:43:26;19.70;99.90
12948;DHT22;6539;49.476;8.484;2023-10-09T10:46:41;20.00;99.90
12948;DHT22;6539;49.476;8.484;2023-10-09T10:49:32;20.10;99.90
12948;DHT22;6539;49.476;8.484;2023-10-09T10:52:26;20.30;99.90
12948;DHT22;6539;49.476;8.484;2023-10-09T10:55:27;20.20;99.90
12948;DHT22;6539;49.476;8.484;2023-10-09T10:58:17;20.20;99.90
12948;DHT22;6539;49.476;8.484;2023-10-09T11:01:23;20.30;99.90
12948;DHT22;6539;49.476;8.484;2023-10-09T11:04:12;20.40;99.90
12948;DHT22;6539;49.476;8.484;2023-10-09T11:07:10;20.60;99.90
12948;DHT22;6539;49.476;8.484;2023-10-09T11:10:01;20.80;99.90
12948;DHT22;6539;49.476;8.484;2023-10-09T11:12:50;20.80;99.90
12948;DHT22;6539;49.476;8.484;2023-10-09T11:15:40;20.90;99.90
12948;DHT22;6539;49.476;8.484;2023-10-09T11:18:42;20.90;99.90
12948;DHT22;6539;49.476;8.484;2023-10-09T11:21:31;21.20;99.90
12948;DHT22;6539;49.476;8.484;2023-10-09T11:24:18;21.40;99.90
12948;DHT22;6539;49.476;8.484;2023-10-09T11:27:13;21.30;99.90
12948;DHT22;6539;49.476;8.484;2023-10-09T11:30:06;21.30;99.90
12948;DHT22;6539;49.476;8.484;2023-10-09T11:33:07;21.20;99.90
12948;DHT22;6539;49.476;8.484;2023-10-09T11:36:00;21.10;99.90
12948;DHT22;6539;49.476;8.484;2023-10-09T11:38:52;21.20;99.90
12948;DHT22;6539;49.476;8.484;2023-10-09T11:41:42;21.10;99.90
12948;DHT22;6539;49.476;8.484;2023-10-09T11:44:36;21.20;99.90
12948;DHT22;6539;49.476;8.484;2023-10-09T11:47:34;21.20;99.90
12948;DHT22;6539;49.476;8.484;2023-10-09T11:50:46;21.20;99.90
12948;DHT22;6539;49.476;8.484;2023-10-09T11:54:02;21.10;99.90
12948;DHT22;6539;49.476;8.484;2023-10-09T11:56:48;21.30;99.90
12948;DHT22;6539;49.476;8.484;2023-10-09T11:59:34;21.60;99.90
12948;DHT22;6539;49.476;8.484;2023-10-09T12:02:26;21.70;99.90
12948;DHT22;6539;49.476;8.484;2023-10-09T12:05:12;21.90;99.90
12948;DHT22;6539;49.476;8.484;2023-10-09T12:08:03;22.10;99.90
12948;DHT22;6539;49.476;8.484;2023-10-09T12:10:54;22.30;99.90
12948;DHT22;6539;49.476;8.484;2023-10-09T12:13:41;22.80;99.90
12948;DHT22;6539;49.476;8.484;2023-10-09T12:16:32;23.60;99.90
12948;DHT22;6539;49.476;8.484;2023-10-09T12:19:19;24.50;99.90
12948;DHT22;6539;49.476;8.484;2023-10-09T12:22:07;24.90;99.90
12948;DHT22;6539;49.476;8.484;2023-10-09T12:25:01;25.00;99.90
12948;DHT22;6539;49.476;8.484;2023-10-09T12:27:55;25.20;99.90
12948;DHT22;6539;49.476;8.484;2023-10-09T12:30:43;25.70;99.90
12948;DHT22;6539;49.476;8.484;2023-10-09T12:33:32;26.30;99.90
12948;DHT22;6539;49.476;8.484;2023-10-09T12:36:27;26.00;99.90
12948;DHT22;6539;49.476;8.484;2023-10-09T12:39:13;26.20;99.90
12948;DHT22;6539;49.476;8.484;2023-10-09T12:42:04;26.30;99.90
12948;DHT22;6539;49.476;8.484;2023-10-09T12:45:00;26.80;99.90
12948;DHT22;6539;49.476;8.484;2023-10-09T12:47:53;26.70;99.90
12948;DHT22;6539;49.476;8.484;2023-10-09T12:50:44;26.50;99.90
12948;DHT22;6539;49.476;8.484;2023-10-09T12:53:30;26.00;99.90
12948;DHT22;6539;49.476;8.484;2023-10-09T12:56:16;26.00;99.90
12948;DHT22;6539;49.476;8.484;2023-10-09T12:59:06;26.00;99.90
12948;DHT22;6539;49.476;8.484;2023-10-09T13:02:00;26.10;99.90
12948;DHT22;6539;49.476;8.484;2023-10-09T13:04:51;26.00;99.90
12948;DHT22;6539;49.476;8.484;2023-10-09T13:07:37;26.20;99.90
12948;DHT22;6539;49.476;8.484;2023-10-09T13:10:24;26.60;99.90
12948;DHT22;6539;49.476;8.484;2023-10-09T13:13:17;26.60;99.90
12948;DHT22;6539;49.476;8.484;2023-10-09T13:16:15;26.70;99.90
12948;DHT22;6539;49.476;8.484;2023-10-09T13:19:10;26.70;99.90
12948;DHT22;6539;49.476;8.484;2023-10-09T13:21:57;26.70;99.90
12948;DHT22;6539;49.476;8.484;2023-10-09T13:24:43;26.70;99.90
12948;DHT22;6539;49.476;8.484;2023-10-09T13:27:29;26.90;99.40
12948;DHT22;6539;49.476;8.484;2023-10-09T13:30:20;26.80;99.50
12948;DHT22;6539;49.476;8.484;2023-10-09T13:33:09;27.10;98.10
12948;DHT22;6539;49.476;8.484;2023-10-09T13:36:02;27.10;96.00
12948;DHT22;6539;49.476;8.484;2023-10-09T13:38:48;26.70;94.60
12948;DHT22;6539;49.476;8.484;2023-10-09T13:41:37;26.30;96.80
12948;DHT22;6539;49.476;8.484;2023-10-09T13:44:28;25.90;98.00
12948;DHT22;6539;49.476;8.484;2023-10-09T13:47:14;25.60;99.30
12948;DHT22;6539;49.476;8.484;2023-10-09T13:50:05;25.40;99.90
12948;DHT22;6539;49.476;8.484;2023-10-09T13:52:55;25.30;99.90
12948;DHT22;6539;49.476;8.484;2023-10-09T13:55:42;25.20;99.90
12948;DHT22;6539;49.476;8.484;2023-10-09T13:58:33;25.20;99.90
12948;DHT22;6539;49.476;8.484;2023-10-09T14:01:20;25.00;99.90
12948;DHT22;6539;49.476;8.484;2023-10-09T14:04:13;24.90;99.90
12948;DHT22;6539;49.476;8.484;2023-10-09T14:07:04;24.80;99.90
12948;DHT22;6539;49.476;8.484;2023-10-09T14:09:51;24.90;99.90
12948;DHT22;6539;49.476;8.484;2023-10-09T14:12:52;24.80;99.90
12948;DHT22;6539;49.476;8.484;2023-10-09T14:15:41;24.80;99.90
12948;DHT22;6539;49.476;8.484;2023-10-09T14:18:28;24.80;99.90
12948;DHT22;6539;49.476;8.484;2023-10-09T14:21:15;24.80;99.90
12948;DHT22;6539;49.476;8.484;2023-10-09T14:24:01;24.80;99.90
12948;DHT22;6539;49.476;8.484;2023-10-09T14:27:01;24.70;99.90
12948;DHT22;6539;49.476;8.484;2023-10-09T14:29:50;24.70;99.90
12948;DHT22;6539;49.476;8.484;2023-10-09T14:32:42;24.70;99.90
12948;DHT22;6539;49.476;8.484;2023-10-09T14:35:37;24.70;99.90
12948;DHT22;6539;49.476;8.484;2023-10-09T14:38:25;24.70;99.90
12948;DHT22;6539;49.476;8.484;2023-10-09T14:41:19;24.50;99.90
12948;DHT22;6539;49.476;8.484;2023-10-09T14:44:08;24.60;99.90
12948;DHT22;6539;49.476;8.484;2023-10-09T14:47:02;24.50;99.90
12948;DHT22;6539;49.476;8.484;2023-10-09T14:49:51;24.60;99.90
12948;DHT22;6539;49.476;8.484;2023-10-09T14:52:40;24.60;99.90
12948;DHT22;6539;49.476;8.484;2023-10-09T14:55:26;24.60;99.90
12948;DHT22;6539;49.476;8.484;2023-10-09T14:58:17;24.50;99.90
12948;DHT22;6539;49.476;8.484;2023-10-09T15:01:12;24.40;99.90
12948;DHT22;6539;49.476;8.484;2023-10-09T15:04:05;24.50;99.90
12948;DHT22;6539;49.476;8.484;2023-10-09T15:07:00;24.50;99.90
12948;DHT22;6539;49.476;8.484;2023-10-09T15:09:47;24.40;99.90
12948;DHT22;6539;49.476;8.484;2023-10-09T15:12:36;24.40;99.90
12948;DHT22;6539;49.476;8.484;2023-10-09T15:15:28;24.50;99.90
12948;DHT22;6539;49.476;8.484;2023-10-09T15:18:19;24.40;99.90
12948;DHT22;6539;49.476;8.484;2023-10-09T15:21:07;24.40;99.90
12948;DHT22;6539;49.476;8.484;2023-10-09T15:23:55;24.40;99.90
12948;DHT22;6539;49.476;8.484;2023-10-09T15:26:45;24.40;99.90
12948;DHT22;6539;49.476;8.484;2023-10-09T15:29:37;24.40;99.90
12948;DHT22;6539;49.476;8.484;2023-10-09T15:32:30;24.30;99.90
12948;DHT22;6539;49.476;8.484;2023-10-09T15:35:17;24.30;99.90
12948;DHT22;6539;49.476;8.484;2023-10-09T15:38:04;24.20;99.90
12948;DHT22;6539;49.476;8.484;2023-10-09T15:40:55;24.20;99.90
12948;DHT22;6539;49.476;8.484;2023-10-09T15:43:41;24.10;99.90
12948;DHT22;6539;49.476;8.484;2023-10-09T15:46:28;24.00;99.90
12948;DHT22;6539;49.476;8.484;2023-10-09T15:49:19;23.90;99.90
12948;DHT22;6539;49.476;8.484;2023-10-09T15:52:05;23.90;99.90
12948;DHT22;6539;49.476;8.484;2023-10-09T15:54:54;23.80;99.90
12948;DHT22;6539;49.476;8.484;2023-10-09T15:57:41;23.70;99.90
12948;DHT22;6539;49.476;8.484;2023-10-09T16:00:27;23.60;99.90
12948;DHT22;6539;49.476;8.484;2023-10-09T16:03:17;23.60;99.90
12948;DHT22;6539;49.476;8.484;2023-10-09T16:06:03;23.50;99.90
12948;DHT22;6539;49.476;8.484;2023-10-09T16:08:50;23.50;99.90
12948;DHT22;6539;49.476;8.484;2023-10-09T16:11:37;23.50;99.90
12948;DHT22;6539;49.476;8.484;2023-10-09T16:14:27;23.50;99.90
12948;DHT22;6539;49.476;8.484;2023-10-09T16:17:19;23.40;99.90
12948;DHT22;6539;49.476;8.484;2023-10-09T16:20:05;23.30;99.90
12948;DHT22;6539;49.476;8.484;2023-10-09T16:22:59;23.20;99.90
12948;DHT22;6539;49.476;8.484;2023-10-09T16:25:49;23.10;99.90
12948;DHT22;6539;49.476;8.484;2023-10-09T16:28:38;23.00;99.90
12948;DHT22;6539;49.476;8.484;2023-10-09T16:31:25;22.90;99.90
12948;DHT22;6539;49.476;8.484;2023-10-09T16:34:21;23.00;99.90
12948;DHT22;6539;49.476;8.484;2023-10-09T16:37:13;22.90;99.90
12948;DHT22;6539;49.476;8.484;2023-10-09T16:40:00;22.70;99.90
12948;DHT22;6539;49.476;8.484;2023-10-09T16:42:56;22.70;99.90
12948;DHT22;6539;49.476;8.484;2023-10-09T16:45:43;22.60;99.90
12948;DHT22;6539;49.476;8.484;2023-10-09T16:48:29;22.40;99.90
12948;DHT22;6539;49.476;8.484;2023-10-09T16:51:17;22.30;99.90
12948;DHT22;6539;49.476;8.484;2023-10-09T16:54:07;22.20;99.90
12948;DHT22;6539;49.476;8.484;2023-10-09T16:57:00;22.10;99.90
12948;DHT22;6539;49.476;8.484;2023-10-09T16:59:50;22.00;99.90
12948;DHT22;6539;49.476;8.484;2023-10-09T17:02:38;21.80;99.90
12948;DHT22;6539;49.476;8.484;2023-10-09T17:05:28;21.60;99.90
12948;DHT22;6539;49.476;8.484;2023-10-09T17:08:14;21.50;99.90
12948;DHT22;6539;49.476;8.484;2023-10-09T17:11:00;21.40;99.90
12948;DHT22;6539;49.476;8.484;2023-10-09T17:13:48;21.40;99.90
12948;DHT22;6539;49.476;8.484;2023-10-09T17:16:34;21.30;99.90
12948;DHT22;6539;49.476;8.484;2023-10-09T17:19:26;21.30;99.90
12948;DHT22;6539;49.476;8.484;2023-10-09T17:22:15;21.20;99.90
12948;DHT22;6539;49.476;8.484;2023-10-09T17:25:03;21.20;99.90
12948;DHT22;6539;49.476;8.484;2023-10-09T17:27:50;21.10;99.90
12948;DHT22;6539;49.476;8.484;2023-10-09T17:30:37;21.10;99.90
12948;DHT22;6539;49.476;8.484;2023-10-09T17:33:23;21.00;99.90
12948;DHT22;6539;49.476;8.484;2023-10-09T17:36:11;21.10;99.90
12948;DHT22;6539;49.476;8.484;2023-10-09T17:38:57;21.00;99.90
12948;DHT22;6539;49.476;8.484;2023-10-09T17:41:47;21.00;99.90
12948;DHT22;6539;49.476;8.484;2023-10-09T17:44:35;21.10;99.90
12948;DHT22;6539;49.476;8.484;2023-10-09T17:47:25;21.00;99.90
12948;DHT22;6539;49.476;8.484;2023-10-09T17:50:11;21.00;99.90
12948;DHT22;6539;49.476;8.484;2023-10-09T17:52:57;21.10;99.90
12948;DHT22;6539;49.476;8.484;2023-10-09T17:55:52;21.00;99.90
12948;DHT22;6539;49.476;8.484;2023-10-09T17:58:40;21.00;99.90
12948;DHT22;6539;49.476;8.484;2023-10-09T18:01:35;21.00;99.90
12948;DHT22;6539;49.476;8.484;2023-10-09T18:04:24;20.90;99.90
12948;DHT22;6539;49.476;8.484;2023-10-09T18:07:10;20.90;99.90
12948;DHT22;6539;49.476;8.484;2023-10-09T18:09:59;20.90;99.90
12948;DHT22;6539;49.476;8.484;2023-10-09T18:12:47;20.90;99.90
12948;DHT22;6539;49.476;8.484;2023-10-09T18:15:36;20.80;99.90
12948;DHT22;6539;49.476;8.484;2023-10-09T18:18:23;20.80;99.90
12948;DHT22;6539;49.476;8.484;2023-10-09T18:21:10;20.80;99.90
12948;DHT22;6539;49.476;8.484;2023-10-09T18:23:56;20.80;99.90
12948;DHT22;6539;49.476;8.484;2023-10-09T18:26:44;20.70;99.90
12948;DHT22;6539;49.476;8.484;2023-10-09T18:29:32;20.80;99.90
12948;DHT22;6539;49.476;8.484;2023-10-09T18:32:19;20.70;99.90